This is the latest recevied weather packets stored in our database for station/object KC0UFP. If no packets are shown the sender has not sent any weather packets the latest 10 day(s).
| Time | Temp. | Humidity | Pressure | Rain* | Wind** | Luminosity | Snow |
|---|---|---|---|---|---|---|---|
| 1777918510 | 26.11° C | 36% | 1009.9 hPa | 0 mm | - | 1021 W/m² | - |
| 1777918208 | 26.11° C | 36% | 1010 hPa | 0 mm | - | 1018 W/m² | - |
| 1777917907 | 25.56° C | 39% | 1010.3 hPa | 0 mm | - | 1012 W/m² | - |
| 1777917605 | 25.56° C | 39% | 1010.2 hPa | 0 mm | - | 1016 W/m² | - |
| 1777917302 | 25.56° C | 38% | 1010.1 hPa | 0 mm | - | 1019 W/m² | - |
| 1777916999 | 25.56° C | 40% | 1010.1 hPa | 0 mm | - | 1016 W/m² | - |
| 1777916697 | 25.56° C | 38% | 1010.4 hPa | 0 mm | - | 1020 W/m² | - |
| 1777916394 | 25.56° C | 37% | 1010.4 hPa | 0 mm | - | 1031 W/m² | - |
| 1777916090 | 25.56° C | 38% | 1010.5 hPa | 0 mm | - | 1020 W/m² | - |
| 1777915788 | 25.56° C | 38% | 1010.6 hPa | 0 mm | - | 1017 W/m² | - |
| 1777915483 | 25.56° C | 38% | 1010.4 hPa | 0 mm | - | 997 W/m² | - |
| 1777915180 | 25° C | 38% | 1010.4 hPa | 0 mm | - | 1003 W/m² | - |
| 1777914877 | 25.56° C | 39% | 1010.5 hPa | 0 mm | - | 1006 W/m² | - |
| 1777914574 | 25.56° C | 39% | 1010.4 hPa | 0 mm | - | 985 W/m² | - |
| 1777914270 | 25.56° C | 39% | 1010.4 hPa | 0 mm | - | 993 W/m² | - |
| 1777913967 | 25° C | 40% | 1010.7 hPa | 0 mm | - | 959 W/m² | - |
| 1777913664 | 25° C | 38% | 1010.8 hPa | 0 mm | - | 989 W/m² | - |
| 1777913361 | 25.56° C | 40% | 1010.8 hPa | 0 mm | - | 970 W/m² | - |
| 1777913057 | 25.56° C | 39% | 1010.9 hPa | 0 mm | - | 971 W/m² | - |
| 1777912753 | 25.56° C | 38% | 1010.9 hPa | 0 mm | - | 977 W/m² | - |
| 1777912449 | 25° C | 39% | 1011 hPa | 0 mm | - | 963 W/m² | - |
| 1777912146 | 25° C | 40% | 1011 hPa | 0 mm | - | 943 W/m² | - |
| 1777911842 | 25° C | 40% | 1011.3 hPa | 0 mm | - | 959 W/m² | - |
| 1777911539 | 25° C | 41% | 1011.3 hPa | 0 mm | - | 933 W/m² | - |
| 1777911235 | 25° C | 40% | 1011.1 hPa | 0 mm | - | 919 W/m² | - |
* Rain latest hour (hover to see other rain measurements)
** Current wind speed in m/s (hover to see current wind gust speed)